createdAt,value
2023-05-21T01:12:43.450Z,3.10
2023-05-21T01:15:11.004Z,3.67
2023-05-21T01:17:39.812Z,3.10
2023-05-21T01:20:10.186Z,3.10
2023-05-21T01:22:39.611Z,3.10
2023-05-21T01:25:07.012Z,3.20
2023-05-21T01:27:34.147Z,3.30
2023-05-21T01:30:01.320Z,3.33
2023-05-21T01:32:31.522Z,3.40
2023-05-21T01:34:58.697Z,3.67
2023-05-21T01:37:28.633Z,4.90
2023-05-21T01:40:03.915Z,5.18
2023-05-21T01:42:31.546Z,4.93
2023-05-21T01:45:00.275Z,5.57
2023-05-21T01:47:28.070Z,6.05
2023-05-21T01:49:55.215Z,6.30
2023-05-21T01:52:22.784Z,5.50
2023-05-21T01:54:51.115Z,5.60
2023-05-21T01:57:18.698Z,5.80
2023-05-21T01:59:47.823Z,5.20
2023-05-21T02:02:15.240Z,5.25
2023-05-21T02:04:44.051Z,4.95
2023-05-21T02:07:11.259Z,5.72
2023-05-21T02:09:38.448Z,4.60
2023-05-21T02:12:05.665Z,5.20
2023-05-21T02:14:36.282Z,4.82
2023-05-21T02:17:03.440Z,4.82
2023-05-21T02:19:30.703Z,4.25
2023-05-21T02:21:57.853Z,4.05
2023-05-21T02:24:25.045Z,4.72
2023-05-21T02:26:52.484Z,5.38
2023-05-21T02:29:20.087Z,4.93
2023-05-21T02:31:47.335Z,4.50
2023-05-21T02:34:14.563Z,3.92
2023-05-21T02:36:41.890Z,4.72
2023-05-21T02:39:09.139Z,4.85
2023-05-21T02:41:37.632Z,4.45
2023-05-21T02:44:04.845Z,5.13
2023-05-21T02:46:32.107Z,6.07
2023-05-21T02:48:59.458Z,4.28
2023-05-21T02:51:26.641Z,4.70
2023-05-21T02:53:53.840Z,5.03
2023-05-21T02:56:20.976Z,4.50
2023-05-21T02:58:48.127Z,5.18
2023-05-21T03:01:15.307Z,5.00
2023-05-21T03:03:42.678Z,4.88
2023-05-21T03:06:10.160Z,4.32
2023-05-21T03:08:37.509Z,4.00
2023-05-21T03:11:04.930Z,4.60
2023-05-21T03:13:32.130Z,4.60
2023-05-21T03:15:59.384Z,4.10
2023-05-21T03:18:26.520Z,3.35
2023-05-21T03:20:53.721Z,3.45
2023-05-21T03:23:20.901Z,3.45
2023-05-21T03:25:48.390Z,3.60
2023-05-21T03:28:15.882Z,3.83
2023-05-21T03:30:46.258Z,3.25
2023-05-21T03:33:14.193Z,3.53
2023-05-21T03:35:41.346Z,4.20
2023-05-21T03:38:08.570Z,3.13
2023-05-21T03:40:35.762Z,3.20
2023-05-21T03:43:02.964Z,4.72
2023-05-21T03:45:30.125Z,3.10
2023-05-21T03:47:57.462Z,3.50
2023-05-21T03:50:24.790Z,2.95
2023-05-21T03:52:51.962Z,3.20
2023-05-21T03:55:19.161Z,3.95
2023-05-21T03:57:46.319Z,2.97
2023-05-21T04:00:14.145Z,3.58
2023-05-21T04:02:41.670Z,3.08
2023-05-21T04:05:09.045Z,3.22
2023-05-21T04:07:38.435Z,2.30
2023-05-21T09:09:42.611Z,0.95
2023-05-21T09:12:09.839Z,1.10
2023-05-21T09:17:04.463Z,1.42
2023-05-21T09:19:32.402Z,1.20
2023-05-21T09:22:02.719Z,0.85
2023-05-21T09:24:34.432Z,1.10
2023-05-21T09:27:03.776Z,1.50
2023-05-21T09:29:30.935Z,1.30
2023-05-21T09:31:58.103Z,1.13
2023-05-21T09:34:26.146Z,1.17
2023-05-21T09:36:57.639Z,1.30
2023-05-21T09:39:31.004Z,1.10
2023-05-21T09:41:58.613Z,1.00
2023-05-21T09:44:25.913Z,1.00
2023-05-21T09:46:58.429Z,1.45
2023-05-21T09:49:26.711Z,1.60
2023-05-21T09:52:00.039Z,1.48
2023-05-21T09:54:32.219Z,1.13
2023-05-21T09:57:01.656Z,0.93
2023-05-21T09:59:38.989Z,1.63
2023-05-21T10:02:16.517Z,0.90
2023-05-21T10:04:44.910Z,1.08
2023-05-21T10:07:12.180Z,1.85
2023-05-21T10:09:40.201Z,1.20
2023-05-21T10:12:08.049Z,1.23
2023-05-21T10:14:35.551Z,1.50
2023-05-21T10:29:19.833Z,1.45
2023-05-21T10:31:50.653Z,1.50
2023-05-21T10:36:45.481Z,1.45
2023-05-21T12:02:46.456Z,1.15
2023-05-21T12:05:13.730Z,3.17
2023-05-21T12:07:40.967Z,1.50
2023-05-21T12:10:08.497Z,1.10
2023-05-21T12:12:50.063Z,1.70
2023-05-21T12:15:21.096Z,1.92
2023-05-21T12:17:52.736Z,1.30
2023-05-21T12:20:20.190Z,1.17
2023-05-21T12:22:49.188Z,2.65
2023-05-21T12:25:19.806Z,1.67
2023-05-21T12:27:47.316Z,1.48
2023-05-21T12:30:14.601Z,1.73
2023-05-21T12:32:46.499Z,1.75
2023-05-21T12:35:23.618Z,1.52
2023-05-21T12:37:51.426Z,1.67
2023-05-21T12:40:19.072Z,2.13
2023-05-21T12:42:46.334Z,1.42
2023-05-21T12:45:13.743Z,2.35
2023-05-21T12:47:40.961Z,1.83
2023-05-21T12:50:12.319Z,1.80
2023-05-21T12:52:41.096Z,1.88
2023-05-21T12:55:10.301Z,2.17
2023-05-21T12:57:38.918Z,1.77
2023-05-21T13:00:07.199Z,1.83
2023-05-21T13:02:41.644Z,1.55
2023-05-21T13:05:10.165Z,1.60
2023-05-21T13:07:38.872Z,2.08
2023-05-21T13:10:06.726Z,1.48
2023-05-21T13:12:34.981Z,2.55
2023-05-21T13:15:03.014Z,1.83
2023-05-21T13:17:30.669Z,1.73
2023-05-21T13:20:08.907Z,1.88
2023-05-21T13:22:38.957Z,2.00
2023-05-21T13:25:06.940Z,1.85
2023-05-21T13:27:34.167Z,1.40
2023-05-21T13:30:01.954Z,1.63
2023-05-21T13:32:29.167Z,2.22
2023-05-21T13:34:56.383Z,1.65
2023-05-21T13:37:23.577Z,1.38
2023-05-21T13:39:50.863Z,2.15
2023-05-21T13:42:18.274Z,1.98
2023-05-21T13:44:45.597Z,1.40
2023-05-21T13:47:12.797Z,1.63
2023-05-21T13:49:40.603Z,1.65
2023-05-21T13:52:08.404Z,1.30
2023-05-21T13:54:36.173Z,1.50
2023-05-21T13:57:03.675Z,1.70
2023-05-21T13:59:33.423Z,1.45
2023-05-21T14:02:01.306Z,1.92
2023-05-21T14:04:28.902Z,2.17
2023-05-21T14:06:56.759Z,2.92
2023-05-21T14:09:27.089Z,1.98
2023-05-21T14:11:56.082Z,2.60
2023-05-21T14:14:23.573Z,2.05
2023-05-21T14:16:51.338Z,2.25
2023-05-21T14:19:18.703Z,1.67
2023-05-21T14:21:46.055Z,1.50
2023-05-21T14:24:13.303Z,1.77
2023-05-21T14:26:43.259Z,1.73
2023-05-21T14:29:10.513Z,1.70
2023-05-21T14:31:37.844Z,1.83
2023-05-21T14:34:06.896Z,2.00
2023-05-21T14:36:34.143Z,1.88
2023-05-21T14:39:01.403Z,1.60
2023-05-21T14:41:28.713Z,1.67
2023-05-21T14:43:56.011Z,1.60
2023-05-21T14:46:23.397Z,1.60
2023-05-21T14:48:50.662Z,1.67
2023-05-21T14:51:17.962Z,1.40
2023-05-21T14:53:45.125Z,1.85
2023-05-21T14:56:12.398Z,1.73
2023-05-21T14:58:40.005Z,1.77
2023-05-21T15:01:07.193Z,2.10
2023-05-21T15:06:01.963Z,1.77
2023-05-21T15:08:29.153Z,1.67
2023-05-21T15:10:57.620Z,2.13
2023-05-21T15:13:24.755Z,1.80
2023-05-21T15:15:51.938Z,1.83
2023-05-21T15:18:19.170Z,1.75
2023-05-21T15:20:46.308Z,1.70
2023-05-21T15:23:17.428Z,1.60
2023-05-21T15:25:45.407Z,1.48
2023-05-21T15:28:12.801Z,2.13
2023-05-21T15:30:40.257Z,2.13
2023-05-21T15:33:07.479Z,1.23
2023-05-21T15:35:36.357Z,1.58
2023-05-21T15:38:03.951Z,1.30
2023-05-21T15:40:32.379Z,2.17
2023-05-21T15:42:59.715Z,1.52
2023-05-21T15:45:27.038Z,1.92
